Time;durP1;ratioP1;P1;durP2;ratioP2;P2;SDS_P1;SDS_P2;PMS_P1;PMS_P2;Temp;Humidity;BMP_temperature;BMP_pressure;BME280_temperature;BME280_humidity;BME280_pressure;Samples;Min_cycle;Max_cycle;Signal;HPM_P1;HPM_P2
2020/12/16 00:01:21;;;;;;;57.63;25.15;;;10.00;94.40;;;;;;5020944;28;20018;-73
2020/12/16 00:03:46;;;;;;;67.20;27.63;;;10.00;94.30;;;;;;5015194;28;20386;-73
2020/12/16 00:06:14;;;;;;;41.58;27.38;;;10.00;94.30;;;;;;5014743;28;20017;-73
2020/12/16 00:08:40;;;;;;;51.08;26.30;;;10.00;94.30;;;;;;5032767;28;20025;-73
2020/12/16 00:11:05;;;;;;;60.53;26.48;;;10.00;94.20;;;;;;5032034;28;20017;-73
2020/12/16 00:13:31;;;;;;;61.15;25.02;;;10.00;94.20;;;;;;5032496;28;20122;-73
2020/12/16 00:15:56;;;;;;;66.22;25.45;;;9.90;94.20;;;;;;5032633;28;20401;-73
2020/12/16 00:18:22;;;;;;;46.45;26.10;;;10.00;94.20;;;;;;5014481;28;20045;-73
2020/12/16 00:20:48;;;;;;;47.25;29.50;;;10.00;94.20;;;;;;5032831;28;20041;-73
2020/12/16 00:23:14;;;;;;;70.93;29.17;;;10.00;94.20;;;;;;5014547;28;20045;-73
2020/12/16 00:25:40;;;;;;;56.85;36.05;;;10.00;94.20;;;;;;5032159;28;20068;-73
2020/12/16 00:28:05;;;;;;;96.47;32.42;;;10.00;94.20;;;;;;5032500;28;20390;-73
2020/12/16 00:30:31;;;;;;;97.93;26.83;;;9.90;94.20;;;;;;5040445;28;20048;-73
2020/12/16 00:32:56;;;;;;;106.82;26.75;;;9.90;94.20;;;;;;5018377;28;20076;-73
2020/12/16 00:35:22;;;;;;;78.90;25.25;;;9.90;94.20;;;;;;5052578;28;20028;-73
2020/12/16 00:37:47;;;;;;;95.72;25.52;;;9.90;94.20;;;;;;5016438;28;20033;-73
2020/12/16 00:40:16;;;;;;;75.28;25.33;;;9.80;94.20;;;;;;5030452;28;20108;-73
2020/12/16 00:42:48;;;;;;;79.57;25.52;;;9.90;94.30;;;;;;5014774;28;20021;-73
2020/12/16 00:45:14;;;;;;;98.40;24.67;;;9.90;94.20;;;;;;5014543;28;20466;-73
2020/12/16 00:47:39;;;;;;;153.52;24.85;;;9.80;94.20;;;;;;5031911;28;20032;-73
2020/12/16 00:50:07;;;;;;;102.65;25.23;;;9.90;94.20;;;;;;5014248;28;20059;-73
2020/12/16 00:52:32;;;;;;;139.60;24.58;;;9.80;94.20;;;;;;5032218;28;20061;-73
2020/12/16 00:54:58;;;;;;;53.67;23.85;;;9.80;94.20;;;;;;5031749;28;20080;-73
2020/12/16 00:57:23;;;;;;;62.38;24.80;;;9.80;94.20;;;;;;5032159;28;20071;-73
2020/12/16 00:59:49;;;;;;;76.50;24.02;;;9.80;94.50;;;;;;5032498;28;20022;-73
2020/12/16 01:02:15;;;;;;;46.70;25.30;;;9.80;94.20;;;;;;5013694;28;20076;-73
2020/12/16 01:04:40;;;;;;;58.80;27.00;;;9.80;94.30;;;;;;5032614;28;20017;-73
2020/12/16 01:07:06;;;;;;;89.60;25.75;;;9.80;94.30;;;;;;5032166;28;20041;-73
2020/12/16 01:09:31;;;;;;;53.60;26.67;;;9.80;94.30;;;;;;5013986;28;20018;-73
2020/12/16 01:11:57;;;;;;;71.55;27.00;;;9.80;94.40;;;;;;5014225;28;20033;-73
2020/12/16 01:14:23;;;;;;;56.97;27.17;;;9.80;94.40;;;;;;5031847;28;20032;-73
2020/12/16 01:16:48;;;;;;;91.85;27.15;;;9.80;94.40;;;;;;5032485;28;20382;-73
2020/12/16 01:19:14;;;;;;;74.38;28.33;;;9.80;94.40;;;;;;5032065;28;20053;-73
2020/12/16 01:21:39;;;;;;;110.20;28.25;;;9.80;94.40;;;;;;5032779;28;20026;-73
2020/12/16 01:24:06;;;;;;;135.90;26.20;;;9.80;94.40;;;;;;5035743;28;20445;-73
2020/12/16 01:26:46;;;;;;;61.97;24.08;;;9.80;94.40;;;;;;5036050;28;20363;-73
2020/12/16 01:29:14;;;;;;;61.95;25.15;;;9.80;94.40;;;;;;5017286;28;20049;-73
2020/12/16 01:31:43;;;;;;;55.47;23.88;;;9.70;94.30;;;;;;5035901;28;20061;-74
2020/12/16 01:34:09;;;;;;;64.90;23.90;;;9.70;94.30;;;;;;5035424;28;20080;-74
2020/12/16 01:36:42;;;;;;;54.90;22.25;;;9.70;94.30;;;;;;5035092;28;20040;-73
2020/12/16 01:39:09;;;;;;;53.78;21.75;;;9.70;94.30;;;;;;5035440;28;20021;-73
2020/12/16 01:41:39;;;;;;;58.25;21.15;;;9.60;94.30;;;;;;5017842;28;20021;-74
2020/12/16 01:44:10;;;;;;;81.13;21.55;;;9.60;94.30;;;;;;5034739;28;20057;-73
2020/12/16 01:46:35;;;;;;;85.70;21.30;;;9.70;94.30;;;;;;5017796;28;20033;-73
2020/12/16 01:49:01;;;;;;;111.63;23.00;;;9.60;94.20;;;;;;5035230;28;20026;-73
2020/12/16 01:51:28;;;;;;;82.18;24.42;;;9.60;94.60;;;;;;5034890;28;20580;-73
2020/12/16 01:53:56;;;;;;;105.10;25.88;;;9.60;94.40;;;;;;5017334;28;20075;-73
2020/12/16 01:56:25;;;;;;;123.78;25.63;;;9.60;94.50;;;;;;5017464;28;20025;-73
2020/12/16 01:58:53;;;;;;;130.70;25.17;;;9.60;94.50;;;;;;5017172;28;20546;-73
2020/12/16 02:01:23;;;;;;;62.60;22.40;;;9.60;94.50;;;;;;5035370;28;20036;-73
2020/12/16 02:03:53;;;;;;;79.93;23.48;;;9.60;94.50;;;;;;5034733;28;20022;-73
2020/12/16 02:06:20;;;;;;;86.38;22.98;;;9.60;94.50;;;;;;5035455;28;20048;-73
2020/12/16 02:08:55;;;;;;;90.72;21.70;;;9.50;94.50;;;;;;5017589;28;20025;-73
2020/12/16 02:11:21;;;;;;;65.75;19.55;;;9.50;94.50;;;;;;5034513;28;20026;-74
2020/12/16 02:13:46;;;;;;;95.57;22.40;;;9.50;94.40;;;;;;5017219;28;20355;-73
2020/12/16 02:16:12;;;;;;;89.22;21.75;;;9.50;94.40;;;;;;5035035;28;20356;-73
2020/12/16 02:18:38;;;;;;;73.97;22.42;;;9.50;94.40;;;;;;5034412;28;20500;-73
2020/12/16 02:21:03;;;;;;;93.75;20.60;;;9.40;94.40;;;;;;5034731;28;20474;-73
2020/12/16 02:23:31;;;;;;;124.13;22.80;;;9.40;94.50;;;;;;5017103;28;20021;-73
2020/12/16 02:25:57;;;;;;;53.10;20.90;;;9.40;94.50;;;;;;5034048;28;20025;-74
2020/12/16 02:28:22;;;;;;;85.00;23.38;;;9.40;94.50;;;;;;5034775;28;20024;-73
2020/12/16 02:30:47;;;;;;;111.45;21.67;;;9.40;94.50;;;;;;5034962;28;20017;-73
2020/12/16 02:33:13;;;;;;;124.72;23.75;;;9.40;94.50;;;;;;5015460;28;20406;-73
2020/12/16 02:35:38;;;;;;;88.45;23.90;;;9.40;94.50;;;;;;5034763;28;20045;-73
2020/12/16 02:38:04;;;;;;;90.03;23.98;;;9.40;94.50;;;;;;5016630;28;20474;-73
2020/12/16 02:40:29;;;;;;;124.80;23.45;;;9.40;94.60;;;;;;5016257;28;20034;-73
2020/12/16 02:42:55;;;;;;;80.25;24.35;;;9.40;94.60;;;;;;5034231;28;20033;-73
2020/12/16 02:45:20;;;;;;;97.78;23.73;;;9.40;94.50;;;;;;5034493;28;20068;-73
2020/12/16 02:47:46;;;;;;;123.20;22.90;;;9.40;94.60;;;;;;5033826;28;20445;-73
2020/12/16 02:50:11;;;;;;;110.30;23.40;;;9.40;94.60;;;;;;5034151;28;20497;-73
2020/12/16 02:52:37;;;;;;;97.03;22.95;;;9.30;94.50;;;;;;5034223;28;20030;-74
2020/12/16 02:55:03;;;;;;;116.75;23.05;;;9.30;94.50;;;;;;5033423;28;20029;-74
2020/12/16 02:57:28;;;;;;;96.05;22.40;;;9.30;94.50;;;;;;5034412;28;20029;-74
2020/12/16 02:59:56;;;;;;;85.35;22.90;;;9.30;94.50;;;;;;5033561;28;20121;-74
2020/12/16 03:02:22;;;;;;;104.15;22.33;;;9.30;94.50;;;;;;5034176;28;20014;-73
2020/12/16 03:04:48;;;;;;;124.45;22.88;;;9.30;94.50;;;;;;5016372;28;20485;-74
2020/12/16 03:07:14;;;;;;;75.78;22.88;;;9.30;94.50;;;;;;5033122;28;20375;-74
2020/12/16 03:09:39;;;;;;;97.38;20.75;;;9.20;94.40;;;;;;5033970;28;20025;-74
2020/12/16 03:12:05;;;;;;;100.20;18.90;;;9.20;94.40;;;;;;5033505;28;20359;-74
2020/12/16 03:14:30;;;;;;;55.22;18.70;;;9.20;94.40;;;;;;5015552;28;20025;-74
2020/12/16 03:16:56;;;;;;;51.17;18.58;;;9.10;94.40;;;;;;5033720;28;20029;-74
2020/12/16 03:19:21;;;;;;;46.90;20.17;;;9.10;94.40;;;;;;5033979;28;20021;-73
2020/12/16 03:21:47;;;;;;;92.50;20.52;;;9.10;94.50;;;;;;5033113;28;20020;-74
2020/12/16 03:24:13;;;;;;;99.25;20.77;;;9.10;94.50;;;;;;5033620;28;20402;-74
2020/12/16 03:26:42;;;;;;;77.95;20.17;;;9.00;94.50;;;;;;5033670;28;20493;-74
2020/12/16 03:29:07;;;;;;;65.78;20.25;;;9.00;94.50;;;;;;5032679;28;20025;-73
2020/12/16 03:31:33;;;;;;;81.20;19.63;;;9.00;94.60;;;;;;5015846;28;20390;-73
2020/12/16 03:33:58;;;;;;;104.10;19.67;;;9.00;94.50;;;;;;5032988;28;20049;-73
2020/12/16 03:36:24;;;;;;;79.63;19.75;;;9.00;94.50;;;;;;5032947;28;20468;-73
2020/12/16 03:38:50;;;;;;;45.40;20.13;;;8.90;94.40;;;;;;5033554;28;20021;-73
2020/12/16 03:41:17;;;;;;;57.95;19.13;;;8.90;94.50;;;;;;5033092;28;20116;-73
2020/12/16 03:43:49;;;;;;;65.28;18.67;;;8.90;94.50;;;;;;5032217;28;20018;-73
2020/12/16 03:46:15;;;;;;;54.67;19.15;;;8.90;94.50;;;;;;5032912;28;20088;-73
2020/12/16 03:48:42;;;;;;;79.88;18.77;;;8.90;94.50;;;;;;5033340;28;20055;-73
2020/12/16 03:51:09;;;;;;;68.13;18.83;;;8.80;94.50;;;;;;5032336;28;20025;-73
2020/12/16 03:53:37;;;;;;;84.78;18.33;;;8.80;94.50;;;;;;5033382;28;20044;-73
2020/12/16 03:56:11;;;;;;;62.08;17.67;;;8.80;94.50;;;;;;5033073;28;20029;-73
2020/12/16 03:58:41;;;;;;;56.00;17.42;;;8.80;94.60;;;;;;5033163;28;20036;-73
2020/12/16 04:01:08;;;;;;;52.63;17.63;;;8.80;94.60;;;;;;5015300;28;20025;-74
2020/12/16 04:03:34;;;;;;;75.97;16.80;;;8.80;94.50;;;;;;5032415;28;20017;-74
2020/12/16 04:06:00;;;;;;;61.42;17.02;;;8.80;94.60;;;;;;5032929;28;20021;-74
2020/12/16 04:08:25;;;;;;;96.22;16.63;;;8.80;94.60;;;;;;5033019;28;20035;-74
2020/12/16 04:10:51;;;;;;;79.75;16.10;;;8.80;94.60;;;;;;5032472;28;20026;-74
2020/12/16 04:13:17;;;;;;;93.10;16.67;;;8.80;94.60;;;;;;5015142;28;20037;-74
2020/12/16 04:15:44;;;;;;;123.00;16.50;;;8.70;94.60;;;;;;5032960;28;20093;-74
2020/12/16 04:18:10;;;;;;;92.75;16.15;;;8.80;94.60;;;;;;5032072;28;20366;-74
2020/12/16 04:20:35;;;;;;;109.13;16.85;;;8.70;94.60;;;;;;5032948;28;20062;-74
2020/12/16 04:23:01;;;;;;;113.57;16.40;;;8.70;94.60;;;;;;5032432;28;20037;-73
2020/12/16 04:25:26;;;;;;;85.93;16.23;;;8.70;94.70;;;;;;5032173;28;20386;-73
2020/12/16 04:27:53;;;;;;;98.68;16.75;;;8.70;94.70;;;;;;5032827;28;20029;-73
2020/12/16 04:30:18;;;;;;;100.70;16.27;;;8.70;94.70;;;;;;5032755;28;20382;-73
2020/12/16 04:32:47;;;;;;;118.20;16.27;;;8.70;94.60;;;;;;5031876;28;20038;-72
2020/12/16 04:35:13;;;;;;;241.75;19.63;;;8.70;94.70;;;;;;5032447;28;20025;-73
2020/12/16 04:37:38;;;;;;;97.32;17.08;;;8.70;94.70;;;;;;5032749;28;20029;-73
2020/12/16 04:40:04;;;;;;;113.93;17.92;;;8.70;94.70;;;;;;5013934;28;20029;-73
2020/12/16 04:42:29;;;;;;;116.32;17.40;;;8.70;94.70;;;;;;5014930;28;20388;-73
2020/12/16 04:44:55;;;;;;;181.15;19.13;;;8.70;94.70;;;;;;5032113;28;20544;-73
2020/12/16 04:47:21;;;;;;;100.60;18.40;;;8.70;94.70;;;;;;5014249;28;20026;-73
2020/12/16 04:49:47;;;;;;;109.13;16.90;;;8.70;94.70;;;;;;5032691;28;20021;-73
2020/12/16 04:52:19;;;;;;;105.03;18.52;;;8.70;94.70;;;;;;5032145;28;20117;-73
2020/12/16 04:54:46;;;;;;;108.45;17.90;;;8.70;94.70;;;;;;5032482;28;20112;-72
2020/12/16 04:57:12;;;;;;;128.77;18.58;;;8.70;94.70;;;;;;5034961;28;20030;-73
2020/12/16 04:59:37;;;;;;;117.85;19.85;;;8.70;94.70;;;;;;5035753;28;20087;-72
2020/12/16 05:02:03;;;;;;;89.30;18.95;;;8.70;94.70;;;;;;5018365;28;20033;-73
2020/12/16 05:04:29;;;;;;;61.97;18.15;;;8.70;94.70;;;;;;5019448;28;20060;-73
2020/12/16 05:06:54;;;;;;;45.85;18.23;;;8.70;94.80;;;;;;5035456;28;20025;-73
2020/12/16 05:09:20;;;;;;;50.58;18.67;;;8.70;94.80;;;;;;5018656;28;20497;-73
2020/12/16 05:11:48;;;;;;;52.00;18.80;;;8.70;94.70;;;;;;5018353;28;20037;-73
2020/12/16 05:14:24;;;;;;;49.67;18.40;;;8.70;94.70;;;;;;5035351;28;20025;-72
2020/12/16 05:17:00;;;;;;;33.97;18.30;;;8.60;94.70;;;;;;5036219;28;20026;-73
2020/12/16 05:19:45;;;;;;;46.80;19.55;;;8.60;94.70;;;;;;5036154;28;20029;-73
2020/12/16 05:22:24;;;;;;;45.55;19.35;;;8.60;94.70;;;;;;5017179;28;20052;-72
2020/12/16 05:24:56;;;;;;;45.53;20.10;;;8.60;94.60;;;;;;5036280;28;20013;-72
2020/12/16 05:27:24;;;;;;;31.02;21.13;;;8.60;94.70;;;;;;5018318;28;20087;-72
2020/12/16 05:29:52;;;;;;;30.95;20.10;;;8.50;94.70;;;;;;5035293;28;20052;-72
2020/12/16 05:32:20;;;;;;;35.88;19.98;;;8.50;94.70;;;;;;5017978;28;20033;-72
2020/12/16 05:34:47;;;;;;;30.27;21.35;;;8.50;94.70;;;;;;5034904;28;20049;-72
2020/12/16 05:37:21;;;;;;;30.45;19.48;;;8.40;94.70;;;;;;5035523;28;20035;-72
2020/12/16 05:39:54;;;;;;;34.47;20.95;;;8.40;94.70;;;;;;5035812;28;20059;-72
2020/12/16 05:42:20;;;;;;;30.83;20.80;;;8.30;94.70;;;;;;5035038;28;20374;-72
2020/12/16 05:44:45;;;;;;;31.95;21.50;;;8.30;94.80;;;;;;5035760;28;20026;-72
2020/12/16 05:47:11;;;;;;;28.98;21.35;;;8.30;94.80;;;;;;5035413;28;20103;-72
2020/12/16 05:49:36;;;;;;;30.25;20.85;;;8.30;94.80;;;;;;5017285;28;20430;-72
2020/12/16 05:52:04;;;;;;;26.55;20.27;;;8.20;94.80;;;;;;5035181;28;20561;-72
2020/12/16 05:54:31;;;;;;;29.98;20.13;;;8.20;94.80;;;;;;5017711;28;20431;-71
2020/12/16 05:57:20;;;;;;;27.20;19.65;;;8.20;94.80;;;;;;5016843;28;20020;-72
2020/12/16 06:00:11;;;;;;;27.55;19.08;;;8.20;94.90;;;;;;5035535;28;20359;-72
2020/12/16 06:02:42;;;;;;;20.83;17.35;;;8.00;94.50;;;;;;5035341;28;20030;-72
2020/12/16 06:05:13;;;;;;;21.10;17.42;;;7.90;94.50;;;;;;5034481;28;20466;-73
2020/12/16 06:07:44;;;;;;;22.63;17.00;;;7.80;94.50;;;;;;5035044;28;20428;-72
2020/12/16 06:10:09;;;;;;;25.83;17.43;;;7.70;94.50;;;;;;5034268;28;20044;-72
2020/12/16 06:12:39;;;;;;;22.42;17.45;;;7.50;94.60;;;;;;5034992;28;20037;-72
2020/12/16 06:15:06;;;;;;;24.23;16.02;;;7.40;94.70;;;;;;5017112;28;20108;-72
2020/12/16 06:17:39;;;;;;;20.25;15.30;;;7.30;94.70;;;;;;5034438;28;20057;-72
2020/12/16 06:20:08;;;;;;;21.60;16.77;;;7.20;94.80;;;;;;5035174;28;20110;-72
2020/12/16 06:22:34;;;;;;;20.45;16.83;;;7.10;94.80;;;;;;5034865;28;20034;-72
2020/12/16 06:25:06;;;;;;;21.58;15.75;;;7.10;94.90;;;;;;5033947;28;20096;-72
2020/12/16 06:27:52;;;;;;;22.67;18.23;;;7.00;95.00;;;;;;5034868;28;20449;-72
2020/12/16 06:30:35;;;;;;;22.17;17.80;;;6.90;95.10;;;;;;5034911;28;20482;-72
2020/12/16 06:33:07;;;;;;;20.58;16.70;;;6.90;95.20;;;;;;5011859;28;20038;-72
2020/12/16 06:35:33;;;;;;;23.25;16.83;;;6.90;95.30;;;;;;5029085;28;20109;-73
2020/12/16 06:38:18;;;;;;;20.20;16.13;;;6.90;95.40;;;;;;5029882;28;20522;-73
2020/12/16 06:40:46;;;;;;;17.63;15.82;;;6.80;95.50;;;;;;5033699;28;20104;-74
2020/12/16 06:43:30;;;;;;;19.15;15.82;;;6.80;95.50;;;;;;5033099;28;20049;-73
2020/12/16 06:45:56;;;;;;;19.52;14.93;;;6.80;95.60;;;;;;5032647;28;20104;-74
2020/12/16 06:48:33;;;;;;;16.63;14.27;;;6.80;95.60;;;;;;5016568;28;20021;-74
2020/12/16 06:51:25;;;;;;;17.20;15.02;;;6.70;95.60;;;;;;5033326;28;20161;-73
2020/12/16 06:54:04;;;;;;;15.93;13.87;;;6.70;95.70;;;;;;5015559;28;20044;-73
2020/12/16 06:56:30;;;;;;;17.58;15.05;;;6.70;95.70;;;;;;5030634;28;20057;-72
2020/12/16 06:58:55;;;;;;;18.30;13.45;;;6.70;95.70;;;;;;5016219;28;20446;-73
2020/12/16 07:01:22;;;;;;;21.45;15.95;;;6.70;95.70;;;;;;5032630;28;20463;-77
2020/12/16 07:03:47;;;;;;;17.75;15.27;;;6.70;95.70;;;;;;5033704;28;20044;-73
2020/12/16 07:06:28;;;;;;;24.55;16.23;;;6.80;95.60;;;;;;5015324;28;20386;-76
2020/12/16 07:09:12;;;;;;;22.08;14.45;;;6.80;95.60;;;;;;5033168;28;20025;-76
2020/12/16 07:11:46;;;;;;;16.27;14.50;;;6.80;95.50;;;;;;5013397;28;20052;-76
2020/12/16 07:14:23;;;;;;;18.15;15.05;;;6.90;95.40;;;;;;5013118;28;20030;-75
2020/12/16 07:16:49;;;;;;;16.52;13.27;;;6.90;95.30;;;;;;5013934;28;20029;-76
2020/12/16 07:19:28;;;;;;;18.80;14.43;;;6.90;95.30;;;;;;5007502;28;20026;-71
2020/12/16 07:21:55;;;;;;;16.52;13.40;;;6.90;95.30;;;;;;5009688;28;20022;-77
2020/12/16 07:24:22;;;;;;;15.77;13.93;;;6.90;95.20;;;;;;5021883;28;20033;-77
2020/12/16 07:26:55;;;;;;;19.98;13.10;;;6.90;95.10;;;;;;5015629;28;20017;-76
2020/12/16 07:29:37;;;;;;;24.35;13.85;;;7.00;95.00;;;;;;5033119;28;20025;-74
2020/12/16 07:32:13;;;;;;;18.55;13.07;;;7.00;95.00;;;;;;5018406;28;20038;-75
2020/12/16 07:34:45;;;;;;;14.25;12.55;;;7.00;94.90;;;;;;5014487;28;20493;-72
2020/12/16 07:37:12;;;;;;;16.65;13.57;;;7.10;94.80;;;;;;5015068;28;20025;-73
2020/12/16 07:39:52;;;;;;;17.15;13.10;;;7.20;94.80;;;;;;5015325;28;20397;-71
2020/12/16 07:42:20;;;;;;;14.77;13.25;;;7.20;94.70;;;;;;5014275;28;20355;-73
2020/12/16 07:44:46;;;;;;;19.55;14.23;;;7.10;94.60;;;;;;5032691;28;20033;-72
2020/12/16 07:47:11;;;;;;;17.52;14.27;;;7.10;94.60;;;;;;5014899;28;20116;-74
2020/12/16 07:49:40;;;;;;;18.77;13.25;;;7.10;94.60;;;;;;5014267;28;20037;-73
2020/12/16 07:52:06;;;;;;;17.90;13.20;;;7.10;94.60;;;;;;5032092;28;20037;-75
2020/12/16 07:54:32;;;;;;;17.80;13.00;;;7.10;94.60;;;;;;5032878;28;20032;-73
2020/12/16 07:56:59;;;;;;;17.40;12.40;;;7.10;94.50;;;;;;5031905;28;20103;-73
2020/12/16 07:59:31;;;;;;;14.10;12.35;;;7.10;94.50;;;;;;5014658;28;20025;-74
2020/12/16 08:02:23;;;;;;;18.67;13.60;;;7.10;94.40;;;;;;5032187;28;20017;-74
2020/12/16 08:04:57;;;;;;;15.20;12.15;;;7.10;94.40;;;;;;5028225;28;20080;-75
2020/12/16 08:07:23;;;;;;;16.23;11.70;;;7.10;94.30;;;;;;5032073;28;20032;-76
2020/12/16 08:09:59;;;;;;;13.77;12.38;;;7.00;94.30;;;;;;5014412;28;20025;-76
2020/12/16 08:12:36;;;;;;;17.33;12.18;;;7.00;94.30;;;;;;5014403;28;20171;-76
2020/12/16 08:15:11;;;;;;;13.88;11.93;;;7.10;94.40;;;;;;5032421;28;20021;-76
2020/12/16 08:17:40;;;;;;;15.88;11.85;;;7.10;94.40;;;;;;5014161;28;20060;-76
2020/12/16 08:20:16;;;;;;;16.83;12.32;;;7.10;94.40;;;;;;5014190;28;20021;-74
2020/12/16 08:22:43;;;;;;;14.27;11.75;;;7.10;94.30;;;;;;5031802;28;20025;-76
2020/12/16 08:25:10;;;;;;;15.68;12.32;;;7.10;94.30;;;;;;5031281;28;20378;-74
2020/12/16 08:27:44;;;;;;;19.95;14.18;;;7.10;94.30;;;;;;5032113;28;20549;-78
2020/12/16 08:30:11;;;;;;;15.15;11.82;;;7.20;94.30;;;;;;5013447;28;20047;-77
2020/12/16 08:32:59;;;;;;;14.30;12.10;;;7.20;94.30;;;;;;5011714;28;20167;-72
2020/12/16 08:35:52;;;;;;;17.75;12.23;;;7.20;94.30;;;;;;5032125;28;20494;-71
2020/12/16 08:38:30;;;;;;;15.98;12.80;;;7.20;94.30;;;;;;5001148;28;20041;-71
2020/12/16 08:40:57;;;;;;;18.88;14.30;;;7.30;94.30;;;;;;5017546;28;20037;-71
2020/12/16 08:43:30;;;;;;;18.73;13.25;;;7.30;94.30;;;;;;5014040;28;20075;-72
2020/12/16 08:46:08;;;;;;;16.30;12.95;;;7.30;94.30;;;;;;5012869;28;20029;-71
2020/12/16 08:48:46;;;;;;;18.98;14.23;;;7.40;94.40;;;;;;5032177;28;20351;-71
2020/12/16 08:51:16;;;;;;;19.75;13.00;;;7.40;94.30;;;;;;5013906;28;20132;-82
2020/12/16 08:54:03;;;;;;;15.98;11.90;;;7.50;94.30;;;;;;5030971;28;20029;-76
2020/12/16 08:56:44;;;;;;;37.50;14.55;;;7.50;94.30;;;;;;5018664;28;20104;-77
2020/12/16 08:59:16;;;;;;;17.85;13.40;;;7.60;94.30;;;;;;5013503;28;20078;-80
2020/12/16 09:01:53;;;;;;;14.68;12.00;;;7.60;94.40;;;;;;5014042;28;20030;-82
2020/12/16 09:04:32;;;;;;;17.95;13.80;;;7.70;94.70;;;;;;5015528;28;20463;-81
2020/12/16 09:07:07;;;;;;;14.52;12.63;;;7.70;94.40;;;;;;5014284;28;20026;-79
2020/12/16 09:09:41;;;;;;;21.60;14.60;;;7.80;94.40;;;;;;5015065;28;20025;-78
2020/12/16 09:12:11;;;;;;;17.67;14.45;;;7.90;94.50;;;;;;5031854;28;20033;-78
2020/12/16 09:14:37;;;;;;;17.25;14.80;;;8.00;94.80;;;;;;5013568;28;20021;-83
2020/12/16 09:17:09;;;;;;;19.77;14.02;;;8.10;94.60;;;;;;5013982;28;20037;-81
2020/12/16 09:19:35;;;;;;;21.92;15.38;;;8.20;94.60;;;;;;5032430;28;20083;-81
2020/12/16 09:22:01;;;;;;;16.23;14.15;;;8.30;94.60;;;;;;5013207;28;20470;-79
2020/12/16 09:24:28;;;;;;;22.83;13.75;;;8.30;94.50;;;;;;5014664;28;20092;-82
2020/12/16 09:26:59;;;;;;;19.48;14.43;;;8.40;94.50;;;;;;5013942;28;20029;-81
2020/12/16 09:29:29;;;;;;;17.02;13.75;;;8.50;94.50;;;;;;5014120;28;20029;-80
2020/12/16 09:32:10;;;;;;;19.20;13.90;;;8.50;94.50;;;;;;5013812;28;20021;-82
2020/12/16 09:34:44;;;;;;;18.60;12.77;;;8.50;94.50;;;;;;5031342;28;20049;-79
2020/12/16 09:37:18;;;;;;;16.58;13.30;;;8.60;94.40;;;;;;5031516;28;20486;-82
2020/12/16 09:39:46;;;;;;;16.83;12.75;;;8.60;94.40;;;;;;5014660;28;20021;-79
2020/12/16 09:42:14;;;;;;;14.95;13.32;;;8.60;94.30;;;;;;5013420;28;20036;-81
2020/12/16 09:44:40;;;;;;;14.90;12.68;;;8.60;94.20;;;;;;5035285;28;20079;-81
2020/12/16 09:47:24;;;;;;;14.07;12.07;;;8.60;94.30;;;;;;5017386;28;20363;-79
2020/12/16 09:49:59;;;;;;;16.50;13.75;;;8.50;94.30;;;;;;5017584;28;20021;-79
2020/12/16 09:52:32;;;;;;;13.68;12.20;;;8.60;94.30;;;;;;5017614;28;20034;-80
2020/12/16 09:55:22;;;;;;;15.43;12.75;;;8.50;94.30;;;;;;5034111;28;20100;-79
2020/12/16 09:58:08;;;;;;;14.40;11.45;;;8.60;94.40;;;;;;5017417;28;20025;-78
2020/12/16 10:00:36;;;;;;;13.40;11.50;;;8.50;94.40;;;;;;5035160;28;20028;-79
2020/12/16 10:03:05;;;;;;;12.68;11.38;;;8.50;94.40;;;;;;5016566;28;20021;-81
2020/12/16 10:05:36;;;;;;;12.25;10.98;;;8.60;94.50;;;;;;5017138;28;20033;-80
2020/12/16 10:08:02;;;;;;;16.60;11.15;;;8.60;94.50;;;;;;5017485;28;20018;-78
2020/12/16 10:10:29;;;;;;;12.55;11.02;;;8.60;94.50;;;;;;5016453;28;20410;-78
2020/12/16 10:12:55;;;;;;;13.32;10.98;;;8.70;94.60;;;;;;5034357;28;20051;-78
2020/12/16 10:15:21;;;;;;;11.82;10.35;;;8.80;94.70;;;;;;5016989;28;20498;-79
2020/12/16 10:17:47;;;;;;;13.55;10.88;;;9.00;94.70;;;;;;5015853;28;20030;-76
2020/12/16 10:20:12;;;;;;;11.85;10.63;;;9.20;94.70;;;;;;5016616;28;20378;-79
2020/12/16 10:22:40;;;;;;;12.73;10.50;;;9.30;94.50;;;;;;5023369;28;20067;-77
2020/12/16 10:25:06;;;;;;;13.48;11.45;;;9.40;94.30;;;;;;5037037;28;20494;-78
2020/12/16 10:27:32;;;;;;;13.32;10.43;;;9.50;94.20;;;;;;5036728;28;20025;-77
2020/12/16 10:29:59;;;;;;;14.93;10.13;;;9.50;94.10;;;;;;5034819;28;20017;-76
2020/12/16 10:32:25;;;;;;;13.80;10.65;;;9.60;94.20;;;;;;5034241;28;20467;-74
2020/12/16 10:34:53;;;;;;;11.02;9.93;;;9.60;94.10;;;;;;5034091;28;20445;-75
2020/12/16 10:37:25;;;;;;;13.30;9.80;;;9.60;94.00;;;;;;5034144;28;20037;-73
2020/12/16 10:39:51;;;;;;;11.13;9.70;;;9.70;94.00;;;;;;5034841;28;20370;-71
2020/12/16 10:42:18;;;;;;;11.95;9.93;;;9.60;93.90;;;;;;5016418;28;20026;-73
2020/12/16 10:44:44;;;;;;;11.95;9.85;;;9.70;93.90;;;;;;5034078;28;20060;-72
2020/12/16 10:47:10;;;;;;;10.60;9.50;;;9.70;94.00;;;;;;5034242;28;20030;-73
2020/12/16 10:49:36;;;;;;;15.85;11.38;;;9.80;93.90;;;;;;5016403;28;20029;-72
2020/12/16 10:52:07;;;;;;;12.43;9.52;;;9.80;93.80;;;;;;5033244;28;20088;-72
2020/12/16 10:54:33;;;;;;;10.33;9.23;;;9.80;93.70;;;;;;5016440;28;20068;-73
2020/12/16 10:56:59;;;;;;;11.32;9.80;;;9.80;93.70;;;;;;5016271;28;20311;-73
2020/12/16 10:59:26;;;;;;;12.45;9.13;;;9.80;93.70;;;;;;5015736;28;20017;-73
2020/12/16 11:01:52;;;;;;;15.48;9.82;;;9.80;93.70;;;;;;5033866;28;20025;-72
2020/12/16 11:04:18;;;;;;;11.77;9.23;;;9.70;93.70;;;;;;5016475;28;20024;-73
2020/12/16 11:06:46;;;;;;;13.73;10.35;;;9.70;93.80;;;;;;5033689;28;20032;-73
2020/12/16 11:09:12;;;;;;;12.45;10.52;;;9.70;93.80;;;;;;5033922;28;20033;-73
2020/12/16 11:11:45;;;;;;;16.63;9.88;;;9.70;93.90;;;;;;5034016;28;20025;-74
2020/12/16 11:14:11;;;;;;;15.43;9.13;;;9.70;93.90;;;;;;5033050;28;20489;-73
2020/12/16 11:16:37;;;;;;;12.48;9.70;;;9.70;93.90;;;;;;5033777;28;20035;-73
2020/12/16 11:19:03;;;;;;;15.85;10.27;;;9.70;94.00;;;;;;5015727;28;20156;-72
2020/12/16 11:21:35;;;;;;;10.82;9.52;;;9.70;94.00;;;;;;5033267;28;20493;-73
2020/12/16 11:24:01;;;;;;;12.57;9.82;;;9.80;94.00;;;;;;5033666;28;20028;-72
2020/12/16 11:26:26;;;;;;;11.30;10.20;;;9.80;94.00;;;;;;5033217;28;20029;-72
2020/12/16 11:28:52;;;;;;;10.50;9.50;;;9.80;94.00;;;;;;5016083;28;20025;-72
2020/12/16 11:31:17;;;;;;;11.32;9.32;;;9.80;94.00;;;;;;5033681;28;20491;-73
2020/12/16 11:33:42;;;;;;;9.32;8.30;;;9.80;94.00;;;;;;5032856;28;20041;-73
2020/12/16 11:36:09;;;;;;;9.75;8.75;;;9.90;94.00;;;;;;5033353;28;20029;-73
2020/12/16 11:38:35;;;;;;;9.75;8.77;;;9.90;94.00;;;;;;5033559;28;20032;-73
2020/12/16 11:41:00;;;;;;;9.70;8.70;;;9.90;94.00;;;;;;5032697;28;20022;-73
2020/12/16 11:43:26;;;;;;;10.98;9.38;;;9.90;94.00;;;;;;5015816;28;20025;-73
2020/12/16 11:45:55;;;;;;;12.32;9.88;;;9.90;94.00;;;;;;5033165;28;20021;-73
2020/12/16 11:48:20;;;;;;;12.60;9.57;;;10.00;94.10;;;;;;5032505;28;20036;-72
2020/12/16 11:50:46;;;;;;;12.23;9.65;;;10.00;94.10;;;;;;5033321;28;20026;-71
2020/12/16 11:53:12;;;;;;;12.15;9.90;;;10.00;94.10;;;;;;5032879;28;20144;-71
2020/12/16 11:55:38;;;;;;;12.20;10.10;;;10.00;94.00;;;;;;5032696;28;20032;-72
2020/12/16 11:58:03;;;;;;;12.95;10.93;;;10.00;94.00;;;;;;5033028;28;20541;-72
2020/12/16 12:00:29;;;;;;;13.15;10.27;;;10.10;94.10;;;;;;5033482;28;20029;-72
2020/12/16 12:02:54;;;;;;;12.15;10.10;;;10.10;94.10;;;;;;5032479;28;20398;-71
2020/12/16 12:05:20;;;;;;;12.30;10.05;;;10.10;94.10;;;;;;5015110;28;20486;-72
2020/12/16 12:07:45;;;;;;;12.35;9.80;;;10.10;94.10;;;;;;5033277;28;20540;-72
2020/12/16 12:10:11;;;;;;;11.82;10.15;;;10.10;94.10;;;;;;5032743;28;20087;-72
2020/12/16 12:12:37;;;;;;;12.65;9.80;;;10.20;94.10;;;;;;5032883;28;20037;-72
2020/12/16 12:15:03;;;;;;;12.10;9.75;;;10.20;94.10;;;;;;5014977;28;20026;-72
2020/12/16 12:17:29;;;;;;;12.88;10.73;;;10.20;94.00;;;;;;5032348;28;20029;-72
2020/12/16 12:19:55;;;;;;;13.43;10.80;;;10.20;94.00;;;;;;5032889;28;20417;-72
2020/12/16 12:22:20;;;;;;;14.25;10.95;;;10.30;94.00;;;;;;5015155;28;20030;-73
2020/12/16 12:24:46;;;;;;;12.15;10.20;;;10.30;93.90;;;;;;5032379;28;20034;-73
2020/12/16 12:27:11;;;;;;;14.25;11.45;;;10.30;93.90;;;;;;5014609;28;20479;-74
2020/12/16 12:29:37;;;;;;;11.98;10.65;;;10.20;93.90;;;;;;5014659;28;20406;-73
2020/12/16 12:32:02;;;;;;;15.02;11.43;;;10.30;94.20;;;;;;5032487;28;20083;-73
2020/12/16 12:34:28;;;;;;;14.52;11.35;;;10.20;94.20;;;;;;5032496;28;20049;-73
2020/12/16 12:36:54;;;;;;;13.63;11.77;;;10.30;93.90;;;;;;5032049;28;20028;-72
2020/12/16 12:39:19;;;;;;;14.50;11.00;;;10.30;93.90;;;;;;5015080;28;20020;-73
2020/12/16 12:41:45;;;;;;;16.08;12.13;;;10.30;93.90;;;;;;5032738;28;20026;-73
2020/12/16 12:44:11;;;;;;;13.95;11.77;;;10.40;94.00;;;;;;5031938;28;20264;-73